Time;durP1;ratioP1;P1;durP2;ratioP2;P2;SDS_P1;SDS_P2;PMS_P1;PMS_P2;Temp;Humidity;BMP_temperature;BMP_pressure;BME280_temperature;BME280_humidity;BME280_pressure;Samples;Min_cycle;Max_cycle;Signal;HPM_P1;HPM_P2
2023/03/07 00:00:57;;;;;;;10.15;4.82;;;;;;;4.23;100.00;100050.66;5222642;28;20029;-76
2023/03/07 00:03:28;;;;;;;13.40;4.75;;;;;;;4.26;100.00;100047.69;5221967;28;20076;-76
2023/03/07 00:06:17;;;;;;;12.18;5.10;;;;;;;4.26;100.00;100046.84;5222653;28;20029;-76
2023/03/07 00:08:49;;;;;;;12.95;5.22;;;;;;;4.25;100.00;100043.38;5204545;28;20032;-76
2023/03/07 00:11:20;;;;;;;15.18;5.32;;;;;;;4.24;100.00;100054.97;5222372;28;20027;-76
2023/03/07 00:13:51;;;;;;;13.73;5.25;;;;;;;4.24;100.00;100052.31;5222337;28;20021;-76
2023/03/07 00:16:23;;;;;;;22.13;6.25;;;;;;;4.26;100.00;100042.38;5221053;28;20030;-76
2023/03/07 00:18:53;;;;;;;9.93;4.47;;;;;;;4.28;100.00;100048.41;5222734;28;20039;-76
2023/03/07 00:21:28;;;;;;;12.65;5.13;;;;;;;4.31;100.00;100044.59;5221696;28;20107;-77
2023/03/07 00:24:03;;;;;;;10.38;5.18;;;;;;;4.31;100.00;100045.44;5223919;28;20036;-76
2023/03/07 00:26:38;;;;;;;13.98;5.10;;;;;;;4.30;100.00;100040.28;5225841;28;20087;-76
2023/03/07 00:29:09;;;;;;;17.33;5.18;;;;;;;4.33;100.00;100037.34;5226674;28;20029;-77
2023/03/07 00:31:40;;;;;;;11.95;4.57;;;;;;;4.33;100.00;100038.19;5227179;28;20028;-76
2023/03/07 00:34:10;;;;;;;12.38;4.70;;;;;;;4.30;100.00;100027.84;5226377;28;20033;-76
2023/03/07 00:36:41;;;;;;;15.32;4.80;;;;;;;4.27;100.00;100038.78;5226815;28;20389;-76
2023/03/07 00:39:12;;;;;;;11.30;4.95;;;;;;;4.29;100.00;100041.28;5225639;28;20051;-77
2023/03/07 00:41:42;;;;;;;10.95;4.75;;;;;;;4.29;100.00;100034.13;5213915;28;20060;-77
2023/03/07 00:44:13;;;;;;;13.35;4.85;;;;;;;4.28;100.00;100037.78;5227667;28;20020;-76
2023/03/07 00:46:43;;;;;;;14.48;4.70;;;;;;;4.29;100.00;100028.00;5227263;28;20032;-77
2023/03/07 00:49:14;;;;;;;13.05;5.55;;;;;;;4.28;100.00;100021.03;5210003;28;20072;-77
2023/03/07 00:51:45;;;;;;;14.00;4.40;;;;;;;4.28;100.00;100028.97;5192919;28;20029;-77
2023/03/07 00:54:15;;;;;;;14.40;4.90;;;;;;;4.27;100.00;100029.97;5227659;28;20098;-77
2023/03/07 00:56:46;;;;;;;13.90;5.13;;;;;;;4.29;100.00;100031.47;5227247;28;20024;-77
2023/03/07 00:59:17;;;;;;;18.65;5.57;;;;;;;4.30;100.00;100022.53;5209287;28;20107;-77
2023/03/07 01:01:47;;;;;;;19.45;5.70;;;;;;;4.28;100.00;100023.66;5227472;28;20028;-77
2023/03/07 01:04:18;;;;;;;13.02;5.93;;;;;;;4.31;100.00;100028.66;5226702;28;20095;-77
2023/03/07 01:06:49;;;;;;;13.40;5.80;;;;;;;4.28;100.00;100024.50;5209190;28;20426;-77
2023/03/07 01:09:20;;;;;;;13.00;5.93;;;;;;;4.28;100.00;100013.88;5209648;28;20024;-77
2023/03/07 01:11:50;;;;;;;15.63;5.80;;;;;;;4.28;100.00;100013.88;5227592;28;20039;-77
2023/03/07 01:14:21;;;;;;;19.42;7.00;;;;;;;4.25;100.00;100010.69;5226848;28;20667;-77
2023/03/07 01:16:51;;;;;;;18.13;6.88;;;;;;;4.22;100.00;100013.59;5192093;28;20021;-77
2023/03/07 01:19:23;;;;;;;19.90;6.90;;;;;;;4.19;100.00;100008.59;5227090;28;20024;-77
2023/03/07 01:21:54;;;;;;;18.20;7.20;;;;;;;4.17;100.00;100008.78;5208496;28;20075;-77
2023/03/07 01:24:24;;;;;;;18.25;8.38;;;;;;;4.17;100.00;100000.81;5226933;28;20158;-77
2023/03/07 01:26:55;;;;;;;19.73;7.95;;;;;;;4.19;100.00;99993.50;5190218;28;20056;-77
2023/03/07 01:29:25;;;;;;;17.52;7.57;;;;;;;4.16;100.00;99996.44;5226757;28;20433;-76
2023/03/07 01:31:56;;;;;;;25.25;8.63;;;;;;;4.13;100.00;99994.09;5226726;28;20065;-77
2023/03/07 01:34:26;;;;;;;24.52;8.48;;;;;;;4.15;100.00;99990.31;5208752;28;20021;-76
2023/03/07 01:36:57;;;;;;;27.98;9.43;;;;;;;4.14;100.00;99987.81;5224648;28;20021;-77
2023/03/07 01:39:27;;;;;;;26.92;10.60;;;;;;;4.18;100.00;99989.19;5225715;28;20013;-77
2023/03/07 01:41:58;;;;;;;24.27;11.02;;;;;;;4.15;100.00;99976.19;5218668;28;20021;-76
2023/03/07 01:44:29;;;;;;;30.98;11.18;;;;;;;4.18;100.00;99975.91;5226156;28;20025;-77
2023/03/07 01:47:00;;;;;;;28.33;12.38;;;;;;;4.16;100.00;99980.53;5225794;28;20028;-77
2023/03/07 01:49:35;;;;;;;30.50;11.85;;;;;;;4.19;100.00;99966.97;5208170;28;20033;-75
2023/03/07 01:52:09;;;;;;;28.45;12.35;;;;;;;4.19;100.00;99969.63;5225640;28;20079;-75
2023/03/07 01:54:47;;;;;;;37.55;13.63;;;;;;;4.19;100.00;99966.13;5208333;28;20029;-75
2023/03/07 01:57:20;;;;;;;32.92;13.73;;;;;;;4.17;100.00;99958.31;5229077;28;20036;-77
2023/03/07 01:59:55;;;;;;;37.50;13.40;;;;;;;4.19;100.00;99952.88;5230559;28;20032;-75
2023/03/07 02:02:28;;;;;;;38.35;13.93;;;;;;;4.17;100.00;99958.31;5226123;28;20051;-76
2023/03/07 02:05:12;;;;;;;36.53;13.88;;;;;;;4.17;100.00;99947.72;5226315;28;20493;-76
2023/03/07 02:07:47;;;;;;;33.13;14.40;;;;;;;4.17;100.00;99947.72;5225791;28;20040;-76
2023/03/07 02:10:20;;;;;;;43.85;16.63;;;;;;;4.14;100.00;99948.00;5225863;28;20075;-75
2023/03/07 02:13:10;;;;;;;38.47;14.60;;;;;;;4.10;100.00;99936.00;5200768;28;20029;-75
2023/03/07 02:15:46;;;;;;;30.25;12.82;;;;;;;4.08;100.00;99938.78;5225779;28;20044;-76
2023/03/07 02:18:23;;;;;;;36.63;14.38;;;;;;;4.05;100.00;99931.13;5225389;28;20020;-76
2023/03/07 02:21:23;;;;;;;33.45;13.35;;;;;;;4.10;100.00;99930.69;5197586;28;20477;-76
2023/03/07 02:24:38;;;;;;;32.60;13.80;;;;;;;4.05;100.00;99924.97;5211255;28;20052;-76
2023/03/07 02:27:24;;;;;;;33.45;14.05;;;;;;;4.02;100.00;99917.31;5224711;28;20100;-75
2023/03/07 02:29:56;;;;;;;37.92;14.60;;;;;;;4.01;100.00;99919.13;5207968;28;20104;-76
2023/03/07 02:32:41;;;;;;;34.78;14.30;;;;;;;4.03;100.00;99919.00;5210065;28;20033;-76
2023/03/07 02:35:15;;;;;;;35.70;14.02;;;;;;;4.02;100.00;99920.81;5207565;28;20116;-76
2023/03/07 02:37:48;;;;;;;35.17;14.48;;;;;;;4.02;100.00;99904.88;5207279;28;20524;-76
2023/03/07 02:40:24;;;;;;;35.08;14.10;;;;;;;4.00;100.00;99914.78;5203368;28;20028;-75
2023/03/07 02:42:59;;;;;;;39.88;13.88;;;;;;;4.01;100.00;99913.81;5208003;28;20021;-76
2023/03/07 02:45:29;;;;;;;38.30;16.95;;;;;;;3.99;100.00;99905.16;5225513;28;20397;-76
2023/03/07 02:48:00;;;;;;;40.30;15.05;;;;;;;3.99;100.00;99901.69;5224968;28;20112;-76
2023/03/07 02:50:31;;;;;;;37.95;15.73;;;;;;;3.95;100.00;99902.94;5225331;28;20393;-76
2023/03/07 02:53:01;;;;;;;36.33;14.98;;;;;;;3.98;100.00;99897.38;5225429;28;20067;-76
2023/03/07 02:55:32;;;;;;;38.05;15.55;;;;;;;3.94;100.00;99895.97;5225285;28;20021;-76
2023/03/07 02:58:03;;;;;;;35.67;14.73;;;;;;;3.95;100.00;99895.00;5225251;28;20033;-75
2023/03/07 03:00:34;;;;;;;39.47;15.70;;;;;;;3.94;100.00;99902.13;5207367;28;20025;-75
2023/03/07 03:03:04;;;;;;;32.72;14.75;;;;;;;3.91;100.00;99889.13;5206579;28;20031;-75
2023/03/07 03:05:35;;;;;;;44.90;16.45;;;;;;;3.87;100.00;99875.34;5207260;28;20027;-75
2023/03/07 03:08:06;;;;;;;45.70;16.85;;;;;;;3.87;100.00;99877.16;5207365;28;20086;-75
2023/03/07 03:10:37;;;;;;;37.85;15.68;;;;;;;3.84;100.00;99872.13;5214558;28;20025;-75
2023/03/07 03:13:07;;;;;;;45.28;16.73;;;;;;;3.84;100.00;99865.00;5221627;28;20021;-75
2023/03/07 03:15:38;;;;;;;46.25;15.38;;;;;;;3.87;100.00;99870.03;5218679;28;20037;-75
2023/03/07 03:18:08;;;;;;;35.22;16.05;;;;;;;3.85;100.00;99871.97;5185980;28;20032;-75
2023/03/07 03:20:40;;;;;;;39.92;14.88;;;;;;;3.89;100.00;99857.44;5219086;28;20398;-75
2023/03/07 03:23:11;;;;;;;35.13;15.88;;;;;;;3.90;100.00;99867.06;5222150;28;20032;-74
2023/03/07 03:25:41;;;;;;;43.63;15.52;;;;;;;3.90;100.00;99860.94;5219057;28;20025;-75
2023/03/07 03:28:12;;;;;;;39.40;17.27;;;;;;;3.87;100.00;99864.72;5221203;28;20516;-76
2023/03/07 03:30:42;;;;;;;36.75;16.35;;;;;;;3.87;100.00;99853.28;5218880;28;20021;-75
2023/03/07 03:33:13;;;;;;;45.10;16.95;;;;;;;3.93;100.00;99852.69;5205622;28;20024;-74
2023/03/07 03:35:44;;;;;;;39.22;15.52;;;;;;;3.97;100.00;99854.06;5219556;28;20032;-75
2023/03/07 03:38:14;;;;;;;39.47;15.77;;;;;;;4.00;100.00;99866.19;5203990;28;20488;-75
2023/03/07 03:40:44;;;;;;;37.85;15.27;;;;;;;3.98;100.00;99858.38;5223183;28;20032;-75
2023/03/07 03:43:15;;;;;;;40.85;17.05;;;;;;;4.04;100.00;99856.97;5221088;28;20089;-75
2023/03/07 03:46:05;;;;;;;39.60;15.75;;;;;;;4.05;100.00;99843.53;5224633;28;20025;-76
2023/03/07 03:48:36;;;;;;;42.65;16.42;;;;;;;4.08;100.00;99843.25;5217639;28;20428;-75
2023/03/07 03:51:09;;;;;;;37.40;15.80;;;;;;;4.06;100.00;99844.34;5218697;28;20028;-75
2023/03/07 03:53:40;;;;;;;36.88;15.45;;;;;;;4.05;100.00;99835.56;5219527;28;20108;-75
2023/03/07 03:56:13;;;;;;;39.47;15.77;;;;;;;4.08;100.00;99842.41;5202913;28;20109;-75
2023/03/07 03:58:47;;;;;;;35.55;15.57;;;;;;;4.08;100.00;99843.25;5220083;28;20025;-75
2023/03/07 04:01:20;;;;;;;36.53;14.90;;;;;;;4.09;100.00;99828.97;5216657;28;20406;-74
2023/03/07 04:03:52;;;;;;;31.83;14.60;;;;;;;4.12;100.00;99834.00;5202965;28;20100;-74
2023/03/07 04:06:25;;;;;;;33.97;15.00;;;;;;;4.16;100.00;99832.69;5199834;28;20029;-75
2023/03/07 04:08:56;;;;;;;38.35;13.20;;;;;;;4.18;100.00;99829.06;5219530;28;20433;-74
2023/03/07 04:11:30;;;;;;;37.55;14.60;;;;;;;4.18;100.00;99832.56;5200862;28;20162;-75
2023/03/07 04:14:01;;;;;;;34.65;14.68;;;;;;;4.21;100.00;99821.63;5197290;28;20026;-76
2023/03/07 04:16:32;;;;;;;34.88;14.73;;;;;;;4.24;100.00;99831.97;5199524;28;20104;-75
2023/03/07 04:19:02;;;;;;;40.97;14.70;;;;;;;4.24;100.00;99821.34;5218895;28;20141;-75
2023/03/07 04:21:33;;;;;;;36.38;15.40;;;;;;;4.22;100.00;99820.66;5219093;28;20569;-75
2023/03/07 04:24:04;;;;;;;35.08;14.15;;;;;;;4.21;100.00;99818.13;5214125;28;20091;-74
2023/03/07 04:26:35;;;;;;;32.80;14.13;;;;;;;4.20;100.00;99819.97;5209555;28;20059;-74
2023/03/07 04:29:05;;;;;;;36.40;14.65;;;;;;;4.21;100.00;99815.50;5219006;28;20029;-75
2023/03/07 04:31:36;;;;;;;33.88;14.50;;;;;;;4.25;100.00;99815.03;5217775;28;20029;-75
2023/03/07 04:34:06;;;;;;;36.45;14.52;;;;;;;4.21;100.00;99811.00;5215706;28;20097;-74
2023/03/07 04:36:37;;;;;;;32.15;14.20;;;;;;;4.21;100.00;99812.84;5215622;28;20238;-75
2023/03/07 04:39:08;;;;;;;31.27;14.13;;;;;;;4.15;100.00;99808.97;5217023;28;20101;-75
2023/03/07 04:41:38;;;;;;;34.60;14.35;;;;;;;4.16;100.00;99802.66;5223075;28;20086;-75
2023/03/07 04:44:09;;;;;;;33.28;15.10;;;;;;;4.15;100.00;99806.31;5220556;28;20397;-75
2023/03/07 04:46:40;;;;;;;37.83;15.43;;;;;;;4.14;100.00;99804.63;5190493;28;20029;-76
2023/03/07 04:49:11;;;;;;;34.40;14.88;;;;;;;4.11;100.00;99800.44;5215855;28;20052;-75
2023/03/07 04:51:41;;;;;;;47.28;17.38;;;;;;;4.14;100.00;99797.50;5209928;28;20493;-75
2023/03/07 04:54:12;;;;;;;40.00;15.77;;;;;;;4.13;100.00;99792.38;5212821;28;20018;-75
2023/03/07 04:56:42;;;;;;;37.20;15.88;;;;;;;4.10;100.00;99790.81;5193749;28;20116;-75
2023/03/07 04:59:13;;;;;;;33.45;15.02;;;;;;;4.11;100.00;99795.16;5193845;28;20041;-75
2023/03/07 05:01:43;;;;;;;37.83;15.80;;;;;;;4.08;100.00;99784.00;5211877;28;20035;-74
2023/03/07 05:04:14;;;;;;;39.05;16.38;;;;;;;4.06;100.00;99786.78;5192841;28;20428;-74
2023/03/07 05:06:44;;;;;;;35.50;15.52;;;;;;;4.10;100.00;99782.88;5215076;28;20017;-75
2023/03/07 05:09:15;;;;;;;42.00;15.95;;;;;;;4.07;100.00;99774.38;5209122;28;20052;-75
2023/03/07 05:11:45;;;;;;;39.35;15.38;;;;;;;4.06;100.00;99772.69;5206212;28;20474;-75
2023/03/07 05:14:16;;;;;;;34.13;15.45;;;;;;;4.08;100.00;99774.22;5211847;28;20030;-75
2023/03/07 05:16:46;;;;;;;33.78;15.80;;;;;;;4.12;100.00;99772.13;5219279;28;20031;-75
2023/03/07 05:19:17;;;;;;;39.53;14.63;;;;;;;4.09;100.00;99761.78;5213609;28;20025;-75
2023/03/07 05:21:48;;;;;;;36.58;15.40;;;;;;;4.14;100.00;99755.03;5216099;28;20112;-75
2023/03/07 05:24:19;;;;;;;33.90;13.73;;;;;;;4.13;100.00;99761.34;5214057;28;20024;-75
2023/03/07 05:26:49;;;;;;;37.05;14.20;;;;;;;4.13;100.00;99764.00;5222324;28;20029;-75
2023/03/07 05:29:20;;;;;;;36.28;14.32;;;;;;;4.16;100.00;99753.06;5214792;28;20032;-75
2023/03/07 05:31:50;;;;;;;35.47;13.95;;;;;;;4.18;100.00;99752.94;5221362;28;20017;-75
2023/03/07 05:34:21;;;;;;;36.72;14.30;;;;;;;4.16;100.00;99762.84;5216402;28;20013;-75
2023/03/07 05:36:51;;;;;;;29.80;13.13;;;;;;;4.16;100.00;99758.38;5220297;28;20037;-75
2023/03/07 05:39:23;;;;;;;30.83;13.80;;;;;;;4.18;100.00;99752.09;5216963;28;20039;-76
2023/03/07 05:41:53;;;;;;;39.33;15.52;;;;;;;4.22;100.00;99754.28;5219748;28;20060;-75
2023/03/07 05:44:24;;;;;;;34.03;14.20;;;;;;;4.15;100.00;99756.69;5226882;28;20070;-75
2023/03/07 05:46:55;;;;;;;32.17;14.75;;;;;;;4.15;100.00;99755.88;5224983;28;20556;-75
2023/03/07 05:49:25;;;;;;;38.97;15.48;;;;;;;4.18;100.00;99750.28;5226370;28;20096;-75
2023/03/07 05:51:56;;;;;;;34.40;14.50;;;;;;;4.18;100.00;99749.44;5206874;28;20110;-75
2023/03/07 05:54:29;;;;;;;31.55;14.05;;;;;;;4.16;100.00;99749.56;5225808;28;20378;-74
2023/03/07 05:57:00;;;;;;;34.65;13.88;;;;;;;4.16;100.00;99747.75;5224364;28;20028;-75
2023/03/07 05:59:30;;;;;;;31.08;14.25;;;;;;;4.15;100.00;99735.47;5207688;28;20029;-76
2023/03/07 06:02:01;;;;;;;29.85;13.15;;;;;;;4.23;100.00;99737.38;5206809;28;20087;-75
2023/03/07 06:04:31;;;;;;;27.33;11.77;;;;;;;4.29;100.00;99735.94;5224509;28;20025;-75
2023/03/07 06:07:02;;;;;;;35.60;13.02;;;;;;;4.22;100.00;99741.03;5225015;28;20032;-75
2023/03/07 06:09:32;;;;;;;31.38;12.77;;;;;;;4.28;100.00;99736.91;5225018;28;20048;-75
2023/03/07 06:12:03;;;;;;;33.45;13.30;;;;;;;4.30;100.00;99741.06;5207876;28;20052;-74
2023/03/07 06:14:34;;;;;;;27.30;11.45;;;;;;;4.30;100.00;99741.06;5213228;28;20048;-75
2023/03/07 06:17:05;;;;;;;28.38;12.13;;;;;;;4.31;100.00;99723.31;5213303;28;20035;-75
2023/03/07 06:19:35;;;;;;;26.13;10.73;;;;;;;4.38;100.00;99722.56;5211261;28;20025;-75
2023/03/07 06:22:07;;;;;;;27.25;11.02;;;;;;;4.43;100.00;99727.41;5211028;28;20030;-75
2023/03/07 06:24:38;;;;;;;30.60;13.77;;;;;;;4.46;100.00;99726.25;5209979;28;20573;-75
2023/03/07 06:27:08;;;;;;;27.83;12.75;;;;;;;4.44;100.00;99718.47;5194339;28;20075;-76
2023/03/07 06:29:39;;;;;;;31.77;14.75;;;;;;;4.51;100.00;99716.84;5200429;28;20028;-76
2023/03/07 06:32:10;;;;;;;27.50;13.25;;;;;;;4.52;100.00;99713.22;5213150;28;20093;-75
2023/03/07 06:34:40;;;;;;;29.17;11.02;;;;;;;4.51;100.00;99718.66;5209632;28;20038;-75
2023/03/07 06:37:11;;;;;;;30.40;12.30;;;;;;;4.53;100.00;99716.72;5212805;28;20021;-75
2023/03/07 06:39:42;;;;;;;30.08;11.52;;;;;;;4.55;100.00;99718.19;5191578;28;20040;-75
2023/03/07 06:42:12;;;;;;;25.55;12.70;;;;;;;4.54;100.00;99711.22;5203071;28;20032;-76
2023/03/07 06:44:43;;;;;;;42.03;17.15;;;;;;;4.54;100.00;99711.22;5220183;28;20048;-75
2023/03/07 06:47:13;;;;;;;37.38;15.85;;;;;;;4.59;100.00;99724.03;5221086;28;20017;-75
2023/03/07 06:49:44;;;;;;;39.72;17.17;;;;;;;4.60;100.00;99726.53;5217703;28;20587;-75
2023/03/07 06:52:14;;;;;;;39.30;16.80;;;;;;;4.59;100.00;99732.03;5219923;28;20096;-76
2023/03/07 06:54:45;;;;;;;108.43;40.58;;;;;;;4.59;100.00;99730.19;5219240;28;20511;-75
2023/03/07 06:57:15;;;;;;;38.33;15.15;;;;;;;4.58;100.00;99733.84;5221165;28;20032;-75
2023/03/07 06:59:46;;;;;;;32.72;13.10;;;;;;;4.58;100.00;99730.34;5221253;28;20025;-75
2023/03/07 07:02:16;;;;;;;43.65;16.77;;;;;;;4.59;100.00;99738.16;5217019;28;20037;-75
2023/03/07 07:04:47;;;;;;;89.03;38.42;;;;;;;4.62;100.00;99732.56;5219467;28;20024;-75
2023/03/07 07:07:17;;;;;;;46.33;19.08;;;;;;;4.59;100.00;99734.66;5220420;28;20036;-75
2023/03/07 07:09:48;;;;;;;35.47;13.90;;;;;;;4.60;100.00;99723.88;5220645;28;20107;-75
2023/03/07 07:12:18;;;;;;;104.85;47.83;;;;;;;4.62;100.00;99729.91;5214904;28;20035;-75
2023/03/07 07:14:49;;;;;;;30.52;12.55;;;;;;;4.57;100.00;99732.19;5203487;28;20032;-75
2023/03/07 07:17:19;;;;;;;31.92;13.15;;;;;;;4.56;100.00;99730.50;5220200;28;20021;-74
2023/03/07 07:19:50;;;;;;;24.95;11.30;;;;;;;4.59;100.00;99732.84;5220416;28;20099;-75
2023/03/07 07:22:20;;;;;;;26.50;13.25;;;;;;;4.70;100.00;99730.94;5218767;28;20020;-75
2023/03/07 07:24:51;;;;;;;26.83;11.82;;;;;;;4.72;100.00;99739.56;5218869;28;20393;-75
2023/03/07 07:27:21;;;;;;;24.20;11.93;;;;;;;4.74;100.00;99734.94;5219527;28;20021;-75
2023/03/07 07:29:52;;;;;;;25.92;11.95;;;;;;;4.69;100.00;99732.75;5217338;28;20025;-75
2023/03/07 07:32:22;;;;;;;28.38;12.80;;;;;;;4.72;100.00;99731.59;5221209;28;20147;-75
2023/03/07 07:34:53;;;;;;;26.45;12.32;;;;;;;4.73;100.00;99741.25;5217156;28;20365;-75
2023/03/07 07:37:23;;;;;;;29.83;12.73;;;;;;;4.74;100.00;99735.78;5220528;28;20032;-75
2023/03/07 07:39:54;;;;;;;32.08;12.43;;;;;;;4.66;100.00;99738.38;5216708;28;20025;-75
2023/03/07 07:42:24;;;;;;;27.13;12.60;;;;;;;4.73;100.00;99739.44;5206529;28;20028;-75
2023/03/07 07:44:55;;;;;;;29.20;13.13;;;;;;;4.78;100.00;99746.94;5202063;28;20040;-76
2023/03/07 07:47:25;;;;;;;28.08;11.52;;;;;;;4.75;100.00;99731.28;5222537;28;20024;-75
2023/03/07 07:49:56;;;;;;;34.10;12.60;;;;;;;4.82;100.00;99748.25;5220693;28;20199;-75
2023/03/07 07:52:26;;;;;;;33.35;13.38;;;;;;;4.83;100.00;99737.50;5220973;28;20040;-75
2023/03/07 07:54:57;;;;;;;29.02;12.27;;;;;;;4.89;100.00;99736.88;5221875;28;20025;-75
2023/03/07 07:57:27;;;;;;;27.17;13.93;;;;;;;4.96;100.00;99746.88;5220006;28;20033;-75
2023/03/07 07:59:58;;;;;;;30.70;15.15;;;;;;;4.93;100.00;99738.22;5222771;28;20397;-75
2023/03/07 08:02:29;;;;;;;26.90;13.35;;;;;;;4.94;100.00;99739.06;5221007;28;20021;-75
2023/03/07 08:04:59;;;;;;;56.60;25.33;;;;;;;4.94;100.00;99749.69;5204442;28;20400;-76
2023/03/07 08:07:30;;;;;;;40.38;17.45;;;;;;;4.99;100.00;99751.88;5219848;28;20024;-75
2023/03/07 08:10:01;;;;;;;42.60;14.32;;;;;;;4.92;100.00;99747.19;5205167;28;20233;-76
2023/03/07 08:12:31;;;;;;;30.38;12.50;;;;;;;4.77;100.00;99748.75;5218974;28;20021;-77
2023/03/07 08:15:02;;;;;;;38.10;14.55;;;;;;;4.80;100.00;99756.41;5215251;28;20104;-76
2023/03/07 08:17:32;;;;;;;38.58;17.88;;;;;;;4.86;100.00;99757.59;5208185;28;20032;-77
2023/03/07 08:20:07;;;;;;;147.63;56.53;;;;;;;4.86;100.00;99769.06;5194871;28;20489;-77
2023/03/07 08:22:38;;;;;;;75.30;33.17;;;;;;;4.80;100.00;99780.31;5191597;28;20402;-77
2023/03/07 08:25:16;;;;;;;46.55;21.30;;;;;;;4.78;100.00;99779.66;5194475;28;20113;-76
2023/03/07 08:27:51;;;;;;;17.80;9.15;;;;;;;4.57;100.00;99803.91;5219027;28;20366;-76
2023/03/07 08:30:25;;;;;;;12.27;6.95;;;;;;;3.89;100.00;99812.34;5208720;28;20052;-78
2023/03/07 08:32:56;;;;;;;18.77;9.65;;;;;;;3.52;100.00;99812.41;5194429;28;20393;-77
2023/03/07 08:35:27;;;;;;;26.48;14.30;;;;;;;3.30;100.00;99802.13;5207880;28;20025;-77
2023/03/07 08:37:59;;;;;;;8.20;3.88;;;;;;;3.21;100.00;99800.34;5210990;28;20032;-77
2023/03/07 08:40:30;;;;;;;12.82;6.70;;;;;;;3.17;100.00;99810.44;5195638;28;20036;-77
2023/03/07 08:43:00;;;;;;;4.53;2.90;;;;;;;3.14;100.00;99800.09;5195489;28;20503;-76
2023/03/07 08:45:31;;;;;;;8.45;4.38;;;;;;;3.16;100.00;99794.66;5219669;28;20017;-77
2023/03/07 08:48:02;;;;;;;12.75;6.38;;;;;;;3.18;100.00;99804.13;5222015;28;20040;-77
2023/03/07 08:50:32;;;;;;;4.32;2.10;;;;;;;3.23;100.00;99801.91;5218121;28;20025;-77
2023/03/07 08:53:03;;;;;;;6.75;5.25;;;;;;;3.25;100.00;99794.63;5202460;28;20033;-77
2023/03/07 08:55:35;;;;;;;4.68;2.88;;;;;;;3.33;100.00;99796.56;5201774;28;20032;-77
2023/03/07 08:58:06;;;;;;;9.75;3.03;;;;;;;3.32;100.00;99792.25;5222282;28;20028;-77
2023/03/07 09:00:37;;;;;;;5.07;2.95;;;;;;;3.36;100.00;99794.47;5222395;28;20088;-76
2023/03/07 09:03:08;;;;;;;6.35;4.05;;;;;;;3.45;100.00;99787.44;5222293;28;20021;-77
2023/03/07 09:05:39;;;;;;;8.18;3.72;;;;;;;3.48;100.00;99796.91;5204895;28;20094;-77
2023/03/07 09:08:09;;;;;;;5.47;3.65;;;;;;;3.48;100.00;99792.44;5199176;28;20033;-77
2023/03/07 09:10:39;;;;;;;12.20;5.25;;;;;;;3.53;100.00;99794.66;5222054;28;20028;-77
2023/03/07 09:13:11;;;;;;;9.68;4.97;;;;;;;3.54;100.00;99793.69;5226906;28;20021;-77
2023/03/07 09:15:41;;;;;;;9.23;3.55;;;;;;;3.59;100.00;99791.41;5194206;28;20068;-77
2023/03/07 09:18:12;;;;;;;9.55;3.92;;;;;;;3.66;100.00;99789.84;5211015;28;20054;-77
2023/03/07 09:20:43;;;;;;;13.93;4.53;;;;;;;3.68;100.00;99797.66;5206855;28;20454;-77
2023/03/07 09:23:13;;;;;;;9.52;4.13;;;;;;;3.73;100.00;99793.59;5189222;28;20029;-77
2023/03/07 09:25:44;;;;;;;7.75;3.17;;;;;;;3.80;100.00;99797.31;5189180;28;20040;-77
2023/03/07 09:28:14;;;;;;;7.97;4.15;;;;;;;3.80;100.00;99796.47;5206241;28;20021;-77
2023/03/07 09:30:45;;;;;;;7.10;3.60;;;;;;;3.83;100.00;99793.53;5188863;28;20113;-77
2023/03/07 09:33:15;;;;;;;10.05;4.10;;;;;;;3.85;100.00;99795.03;5206490;28;20159;-77
2023/03/07 09:35:46;;;;;;;8.90;4.70;;;;;;;3.93;100.00;99786.34;5201817;28;20454;-77
2023/03/07 09:38:17;;;;;;;20.25;10.57;;;;;;;4.01;100.00;99786.41;5206111;28;20407;-77
2023/03/07 09:40:48;;;;;;;19.67;10.35;;;;;;;4.14;100.00;99794.03;5214540;28;20527;-77
2023/03/07 09:43:21;;;;;;;22.88;11.90;;;;;;;4.25;100.00;99785.84;5213344;28;20024;-76
2023/03/07 09:46:29;;;;;;;28.45;11.90;;;;;;;4.31;100.00;99789.69;5218344;28;20109;-76
2023/03/07 09:49:11;;;;;;;18.75;8.60;;;;;;;4.34;100.00;99786.75;5207840;28;20064;-76
2023/03/07 09:51:49;;;;;;;36.95;16.85;;;;;;;4.37;100.00;99791.78;5191888;28;20025;-77
2023/03/07 09:54:26;;;;;;;60.22;27.13;;;;;;;4.43;100.00;99788.50;5218569;28;20028;-77
2023/03/07 09:56:58;;;;;;;33.22;15.32;;;;;;;4.47;100.00;99783.69;5217969;28;20092;-77
2023/03/07 09:59:49;;;;;;;43.92;19.55;;;;;;;4.52;100.00;99786.72;5207696;28;20049;-76
2023/03/07 10:02:45;;;;;;;23.80;11.35;;;;;;;4.55;100.00;99781.94;5206947;28;20022;-76
2023/03/07 10:05:36;;;;;;;38.45;17.17;;;;;;;4.53;100.00;99783.09;5189455;28;20418;-77
2023/03/07 10:08:14;;;;;;;34.92;16.58;;;;;;;4.59;100.00;99779.84;5190168;28;20033;-77
2023/03/07 10:11:02;;;;;;;19.40;9.95;;;;;;;4.56;100.00;99778.31;5196675;28;20025;-77
2023/03/07 10:13:52;;;;;;;24.48;13.25;;;;;;;4.47;100.00;99781.03;5225382;28;20040;-77
2023/03/07 10:16:44;;;;;;;46.45;21.23;;;;;;;4.46;100.00;99782.03;5206774;28;20407;-77
2023/03/07 10:19:30;;;;;;;21.40;11.10;;;;;;;4.50;100.00;99784.22;5201775;28;20044;-76
2023/03/07 10:22:12;;;;;;;23.13;11.15;;;;;;;4.58;100.00;99786.97;5206152;28;20098;-77
2023/03/07 10:25:09;;;;;;;22.33;11.27;;;;;;;4.58;100.00;99792.28;5205965;28;20025;-77
2023/03/07 10:27:39;;;;;;;28.83;14.23;;;;;;;4.54;100.00;99788.25;5206250;28;20029;-77
2023/03/07 10:30:30;;;;;;;30.98;15.77;;;;;;;4.52;100.00;99786.72;5206521;28;20409;-77
2023/03/07 10:33:00;;;;;;;36.25;17.80;;;;;;;4.48;100.00;99785.38;5205980;28;20057;-77
2023/03/07 10:35:39;;;;;;;31.35;15.68;;;;;;;4.48;100.00;99782.72;5206692;28;20099;-77
2023/03/07 10:38:32;;;;;;;39.20;17.83;;;;;;;4.52;100.00;99784.94;5187921;28;20064;-77
2023/03/07 10:41:15;;;;;;;32.50;15.93;;;;;;;4.48;100.00;99791.53;5189874;28;20029;-77
2023/03/07 10:43:48;;;;;;;32.97;15.73;;;;;;;4.43;100.00;99788.50;5194054;28;20390;-77
2023/03/07 10:46:23;;;;;;;33.40;17.23;;;;;;;4.45;100.00;99778.53;5197702;28;20514;-78
2023/03/07 10:48:56;;;;;;;31.58;15.63;;;;;;;4.38;100.00;99780.16;5209053;28;20029;-77
2023/03/07 10:51:34;;;;;;;55.17;27.67;;;;;;;4.28;100.00;99782.88;5208202;28;20087;-77
2023/03/07 10:54:13;;;;;;;32.05;16.38;;;;;;;4.26;100.00;99778.69;5211645;28;20104;-77
2023/03/07 10:57:03;;;;;;;29.25;16.23;;;;;;;4.24;100.00;99780.69;5193999;28;20078;-77
2023/03/07 10:59:36;;;;;;;32.78;15.02;;;;;;;4.18;100.00;99779.47;5208338;28;20021;-77
2023/03/07 11:02:25;;;;;;;29.33;14.48;;;;;;;4.14;100.00;99786.06;5190112;28;20029;-76
2023/03/07 11:04:56;;;;;;;27.80;14.40;;;;;;;4.11;100.00;99783.69;5192558;28;20071;-77
2023/03/07 11:07:28;;;;;;;32.25;15.02;;;;;;;4.08;100.00;99781.38;5172283;28;20032;-77
2023/03/07 11:10:01;;;;;;;25.85;14.38;;;;;;;4.05;100.00;99789.63;5208793;28;20052;-77
2023/03/07 11:12:43;;;;;;;27.73;13.23;;;;;;;4.00;100.00;99786.56;5196419;28;20072;-77
2023/03/07 11:15:22;;;;;;;27.23;13.48;;;;;;;3.99;100.00;99787.56;5207350;28;20113;-77
2023/03/07 11:17:53;;;;;;;26.60;13.48;;;;;;;3.98;100.00;99785.91;5215250;28;20029;-77
2023/03/07 11:20:49;;;;;;;27.08;13.65;;;;;;;3.93;100.00;99790.81;5206952;28;20018;-77
2023/03/07 11:23:22;;;;;;;25.90;12.43;;;;;;;3.98;100.00;99789.38;5217346;28;20087;-77
2023/03/07 11:25:55;;;;;;;25.25;12.38;;;;;;;3.98;100.00;99789.38;5209751;28;20532;-77
2023/03/07 11:28:42;;;;;;;26.30;13.55;;;;;;;3.97;100.00;99787.72;5206484;28;20097;-77
2023/03/07 11:31:27;;;;;;;29.58;14.38;;;;;;;3.99;100.00;99800.84;5216874;28;20036;-76
2023/03/07 11:34:22;;;;;;;29.27;14.43;;;;;;;3.98;100.00;99799.16;5209058;28;20102;-76
2023/03/07 11:37:00;;;;;;;26.10;14.18;;;;;;;4.02;100.00;99795.25;5189743;28;20034;-77
2023/03/07 11:39:38;;;;;;;26.88;13.43;;;;;;;3.99;100.00;99801.66;5206347;28;20512;-77
2023/03/07 11:42:32;;;;;;;27.50;14.10;;;;;;;4.04;100.00;99799.41;5219340;28;20021;-76
2023/03/07 11:45:30;;;;;;;27.45;13.40;;;;;;;3.98;100.00;99800.00;5216181;28;20025;-76
2023/03/07 11:48:19;;;;;;;29.95;14.85;;;;;;;3.95;100.00;99799.47;5219499;28;20029;-76